Time;durP1;ratioP1;P1;durP2;ratioP2;P2;SDS_P1;SDS_P2;PMS_P1;PMS_P2;Temp;Humidity;BMP_temperature;BMP_pressure;BME280_temperature;BME280_humidity;BME280_pressure;Samples;Min_cycle;Max_cycle;Signal;HPM_P1;HPM_P2
2021/04/23 00:00:24;;;;;;;10.53;5.90;;;;;;;;;;5117608;28;20235;-80
2021/04/23 00:02:51;;;;;;;12.50;5.75;;;;;;;;;;5117537;28;20399;-78
2021/04/23 00:05:17;;;;;;;17.83;6.47;;;;;;;;;;5127324;27;20214;-80
2021/04/23 00:07:43;;;;;;;16.48;6.60;;;;;;;;;;5120394;27;20190;-79
2021/04/23 00:10:12;;;;;;;15.55;6.20;;;;;;;;;;5119605;28;20194;-79
2021/04/23 00:12:38;;;;;;;13.77;5.47;;;;;;;;;;5122448;27;20174;-77
2021/04/23 00:15:05;;;;;;;18.60;6.25;;;;;;;;;;5118661;27;20712;-79
2021/04/23 00:17:31;;;;;;;11.10;5.95;;;;;;;;;;5120436;27;20254;-79
2021/04/23 00:19:57;;;;;;;11.00;5.57;;;;;;;;;;5118956;28;20563;-79
2021/04/23 00:22:23;;;;;;;13.90;5.70;;;;;;;;;;5136157;27;20871;-78
2021/04/23 00:24:49;;;;;;;15.82;5.60;;;;;;;;;;5117112;28;20219;-77
2021/04/23 00:27:15;;;;;;;10.70;5.90;;;;;;;;;;5129308;27;20247;-79
2021/04/23 00:29:41;;;;;;;11.02;5.13;;;;;;;;;;5117417;28;20424;-78
2021/04/23 00:34:52;;;;;;;13.73;6.05;;;;;;;;;;5131070;27;20189;-78
2021/04/23 00:37:18;;;;;;;10.98;5.60;;;;;;;;;;5116908;28;20247;-79
2021/04/23 00:39:44;;;;;;;12.23;7.07;;;;;;;;;;5123588;27;20198;-78
2021/04/23 00:42:10;;;;;;;13.20;6.75;;;;;;;;;;5128424;27;20177;-77
2021/04/23 00:44:36;;;;;;;15.02;7.07;;;;;;;;;;5130767;27;20173;-80
2021/04/23 00:47:03;;;;;;;11.85;6.18;;;;;;;;;;5116756;28;20197;-81
2021/04/23 00:49:29;;;;;;;10.57;6.20;;;;;;;;;;5131857;27;20219;-79
2021/04/23 00:51:59;;;;;;;13.53;5.80;;;;;;;;;;5127108;27;20186;-79
2021/04/23 00:54:26;;;;;;;11.00;6.70;;;;;;;;;;5116024;28;20916;-79
2021/04/23 00:56:52;;;;;;;10.93;5.38;;;;;;;;;;5115483;28;20214;-79
2021/04/23 00:59:19;;;;;;;21.65;7.10;;;;;;;;;;5116296;28;20255;-79
2021/04/23 01:02:07;;;;;;;15.63;6.70;;;;;;;;;;5120144;27;20170;-80
2021/04/23 01:04:33;;;;;;;11.73;5.60;;;;;;;;;;5116110;28;20223;-79
2021/04/23 01:07:00;;;;;;;13.52;6.80;;;;;;;;;;5116045;28;20202;-79
2021/04/23 01:09:27;;;;;;;13.02;6.70;;;;;;;;;;5113689;28;20218;-79
2021/04/23 01:11:54;;;;;;;12.23;6.70;;;;;;;;;;5115848;28;20181;-78
2021/04/23 01:14:21;;;;;;;11.38;6.15;;;;;;;;;;5122623;27;20539;-80
2021/04/23 01:16:47;;;;;;;27.02;6.80;;;;;;;;;;5118272;27;20207;-79
2021/04/23 01:19:15;;;;;;;15.50;6.32;;;;;;;;;;5123296;27;20195;-78
2021/04/23 01:21:41;;;;;;;13.57;7.28;;;;;;;;;;5115825;28;20254;-79
2021/04/23 01:24:08;;;;;;;13.32;6.47;;;;;;;;;;5123630;27;20178;-81
2021/04/23 01:26:36;;;;;;;14.88;5.93;;;;;;;;;;5136173;27;20201;-81
2021/04/23 01:29:03;;;;;;;14.38;6.20;;;;;;;;;;5115655;28;20174;-80
2021/04/23 01:31:31;;;;;;;12.40;6.00;;;;;;;;;;5127147;27;20229;-77
2021/04/23 01:34:01;;;;;;;14.98;6.65;;;;;;;;;;5115360;28;20187;-78
2021/04/23 01:36:28;;;;;;;10.48;5.80;;;;;;;;;;5119306;27;20527;-80
2021/04/23 01:38:54;;;;;;;15.90;6.40;;;;;;;;;;5130844;27;20206;-79
2021/04/23 01:41:20;;;;;;;13.57;6.90;;;;;;;;;;5115946;28;20175;-80
2021/04/23 01:43:47;;;;;;;13.10;6.82;;;;;;;;;;5120259;27;20178;-80
2021/04/23 01:46:13;;;;;;;15.50;6.80;;;;;;;;;;5116019;27;20178;-78
2021/04/23 01:48:39;;;;;;;12.77;6.07;;;;;;;;;;5120279;27;20635;-79
2021/04/23 01:51:07;;;;;;;8.93;5.85;;;;;;;;;;5115416;28;20189;-78
2021/04/23 01:53:33;;;;;;;26.13;7.55;;;;;;;;;;5120162;27;20181;-78
2021/04/23 01:55:59;;;;;;;12.73;6.63;;;;;;;;;;5123331;27;20630;-77
2021/04/23 01:58:25;;;;;;;14.27;4.80;;;;;;;;;;5119194;27;20232;-79
2021/04/23 02:00:52;;;;;;;15.50;6.13;;;;;;;;;;5124316;27;20174;-80
2021/04/23 02:03:18;;;;;;;14.73;6.95;;;;;;;;;;5135469;27;20555;-77
2021/04/23 02:05:45;;;;;;;16.42;6.30;;;;;;;;;;5121656;27;20513;-80
2021/04/23 02:08:13;;;;;;;13.88;6.00;;;;;;;;;;5115345;28;20536;-80
2021/04/23 02:10:41;;;;;;;13.75;6.80;;;;;;;;;;5129890;27;20174;-81
2021/04/23 02:13:07;;;;;;;12.30;5.82;;;;;;;;;;5131299;27;20571;-78
2021/04/23 02:15:33;;;;;;;13.30;5.53;;;;;;;;;;5134210;27;20260;-78
2021/04/23 02:17:59;;;;;;;11.93;5.90;;;;;;;;;;5123762;27;20198;-80
2021/04/23 02:20:27;;;;;;;13.63;6.20;;;;;;;;;;5123247;27;20194;-79
2021/04/23 02:22:54;;;;;;;10.25;5.53;;;;;;;;;;5132359;27;20213;-78
2021/04/23 02:25:21;;;;;;;12.35;5.78;;;;;;;;;;5121775;27;20273;-76
2021/04/23 02:27:47;;;;;;;14.18;6.10;;;;;;;;;;5123424;27;20222;-78
2021/04/23 02:30:14;;;;;;;15.38;5.45;;;;;;;;;;5123747;27;20177;-78
2021/04/23 02:32:40;;;;;;;13.00;4.93;;;;;;;;;;5126906;27;20190;-80
2021/04/23 02:35:08;;;;;;;8.50;4.47;;;;;;;;;;5135202;27;20179;-79
2021/04/23 02:37:34;;;;;;;16.33;4.68;;;;;;;;;;5128122;27;20415;-78
2021/04/23 02:40:00;;;;;;;20.75;4.50;;;;;;;;;;5125888;27;20209;-81
2021/04/23 02:42:26;;;;;;;7.72;4.10;;;;;;;;;;5123323;27;20170;-79
2021/04/23 02:44:52;;;;;;;15.52;4.90;;;;;;;;;;5115071;28;20171;-81
2021/04/23 02:47:18;;;;;;;9.27;4.47;;;;;;;;;;5114192;27;20195;-79
2021/04/23 02:49:44;;;;;;;12.60;4.05;;;;;;;;;;5114840;28;20736;-78
2021/04/23 02:52:10;;;;;;;8.30;3.83;;;;;;;;;;5115073;27;20183;-79
2021/04/23 02:54:36;;;;;;;9.87;4.60;;;;;;;;;;5121503;27;20235;-80
2021/04/23 02:57:02;;;;;;;16.30;4.50;;;;;;;;;;5134664;27;20484;-80
2021/04/23 02:59:28;;;;;;;12.88;5.15;;;;;;;;;;5125931;27;20209;-79
2021/04/23 03:01:56;;;;;;;9.85;4.50;;;;;;;;;;5114653;27;20178;-79
2021/04/23 03:04:22;;;;;;;13.65;4.55;;;;;;;;;;5122390;27;20580;-78
2021/04/23 03:06:48;;;;;;;8.57;4.00;;;;;;;;;;5115808;27;20628;-79
2021/04/23 03:09:14;;;;;;;11.40;3.90;;;;;;;;;;5134673;27;20185;-80
2021/04/23 03:11:41;;;;;;;11.30;4.50;;;;;;;;;;5117707;27;20232;-78
2021/04/23 03:14:07;;;;;;;8.82;4.10;;;;;;;;;;5125918;27;20405;-79
2021/04/23 03:16:34;;;;;;;12.18;4.40;;;;;;;;;;5113867;28;20679;-80
2021/04/23 03:19:00;;;;;;;7.90;3.50;;;;;;;;;;5112923;28;20213;-79
2021/04/23 03:21:29;;;;;;;16.88;4.50;;;;;;;;;;5114843;27;20304;-79
2021/04/23 03:23:55;;;;;;;11.40;4.40;;;;;;;;;;5130235;27;20178;-80
2021/04/23 03:26:22;;;;;;;10.27;4.50;;;;;;;;;;5129285;27;20302;-79
2021/04/23 03:28:48;;;;;;;10.82;4.00;;;;;;;;;;5115596;27;20631;-80
2021/04/23 03:31:14;;;;;;;12.85;4.50;;;;;;;;;;5113542;28;20201;-77
2021/04/23 03:33:42;;;;;;;9.93;3.78;;;;;;;;;;5117586;27;20819;-79
2021/04/23 03:36:11;;;;;;;6.65;4.13;;;;;;;;;;5129730;27;20178;-79
2021/04/23 03:38:39;;;;;;;5.75;3.63;;;;;;;;;;5126944;27;20230;-80
2021/04/23 03:41:06;;;;;;;9.70;3.40;;;;;;;;;;5130170;27;20181;-79
2021/04/23 03:43:32;;;;;;;13.65;3.00;;;;;;;;;;5121862;28;20216;-78
2021/04/23 03:45:58;;;;;;;6.63;3.50;;;;;;;;;;5125418;28;20611;-80
2021/04/23 03:48:25;;;;;;;11.93;4.63;;;;;;;;;;5123226;28;20460;-79
2021/04/23 03:50:51;;;;;;;10.98;4.70;;;;;;;;;;5130254;28;20399;-80
2021/04/23 03:53:17;;;;;;;10.23;3.87;;;;;;;;;;5112952;28;20609;-78
2021/04/23 03:55:45;;;;;;;18.10;4.00;;;;;;;;;;5116186;28;20930;-80
2021/04/23 03:58:12;;;;;;;6.70;3.85;;;;;;;;;;5126584;28;20206;-80
2021/04/23 04:00:40;;;;;;;8.80;4.43;;;;;;;;;;5117035;28;20496;-80
2021/04/23 04:03:07;;;;;;;9.43;3.47;;;;;;;;;;5113240;28;20175;-81
2021/04/23 04:05:34;;;;;;;14.77;4.13;;;;;;;;;;5125904;28;20225;-78
2021/04/23 04:08:00;;;;;;;7.82;3.55;;;;;;;;;;5124180;28;20190;-78
2021/04/23 04:10:26;;;;;;;12.10;5.03;;;;;;;;;;5133651;28;20219;-79
2021/04/23 04:12:52;;;;;;;15.43;3.93;;;;;;;;;;5124201;28;20208;-79
2021/04/23 04:15:18;;;;;;;9.98;3.65;;;;;;;;;;5117294;28;20454;-80
2021/04/23 04:17:44;;;;;;;11.88;3.45;;;;;;;;;;5114409;28;20247;-80
2021/04/23 04:20:11;;;;;;;10.77;3.40;;;;;;;;;;5124484;28;20213;-79
2021/04/23 04:22:38;;;;;;;8.00;3.17;;;;;;;;;;5122912;28;20255;-80
2021/04/23 04:25:05;;;;;;;12.93;3.97;;;;;;;;;;5112813;28;20189;-80
2021/04/23 04:27:31;;;;;;;11.70;3.80;;;;;;;;;;5111485;28;20532;-80
2021/04/23 04:29:57;;;;;;;11.05;3.80;;;;;;;;;;5131005;28;20261;-79
2021/04/23 04:32:23;;;;;;;9.70;3.22;;;;;;;;;;5112436;28;20181;-79
2021/04/23 04:34:50;;;;;;;18.10;3.33;;;;;;;;;;5118823;27;20592;-79
2021/04/23 04:37:16;;;;;;;7.85;2.92;;;;;;;;;;5126150;27;20432;-78
2021/04/23 04:39:42;;;;;;;13.23;4.82;;;;;;;;;;5119071;27;20281;-80
2021/04/23 04:42:08;;;;;;;9.55;2.95;;;;;;;;;;5124682;27;20182;-79
2021/04/23 04:44:35;;;;;;;8.43;3.45;;;;;;;;;;5119760;27;20558;-78
2021/04/23 04:47:01;;;;;;;6.75;2.92;;;;;;;;;;5116864;28;20199;-80
2021/04/23 04:49:27;;;;;;;12.93;3.42;;;;;;;;;;5117260;27;20581;-78
2021/04/23 04:51:56;;;;;;;12.50;2.90;;;;;;;;;;5116493;28;20178;-81
2021/04/23 04:54:23;;;;;;;7.60;2.65;;;;;;;;;;5124367;27;20434;-80
2021/04/23 04:56:49;;;;;;;10.20;2.58;;;;;;;;;;5132303;27;20229;-79
2021/04/23 04:59:15;;;;;;;8.75;2.70;;;;;;;;;;5132702;27;20705;-80
2021/04/23 05:01:41;;;;;;;11.87;3.13;;;;;;;;;;5116446;28;20178;-79
2021/04/23 05:04:07;;;;;;;6.30;3.40;;;;;;;;;;5120488;27;20755;-80
2021/04/23 05:06:33;;;;;;;9.00;2.83;;;;;;;;;;5127269;27;20495;-78
2021/04/23 05:08:59;;;;;;;14.55;5.78;;;;;;;;;;5117263;27;20181;-79
2021/04/23 05:11:25;;;;;;;12.33;4.30;;;;;;;;;;5116418;28;20174;-79
2021/04/23 05:13:50;;;;;;;12.38;3.17;;;;;;;;;;5119421;27;20394;-80
2021/04/23 05:16:17;;;;;;;8.27;2.87;;;;;;;;;;5116129;28;20564;-79
2021/04/23 05:18:43;;;;;;;12.45;3.47;;;;;;;;;;5121707;27;20459;-80
2021/04/23 05:21:09;;;;;;;11.65;3.30;;;;;;;;;;5132765;27;20219;-81
2021/04/23 05:23:35;;;;;;;8.70;3.22;;;;;;;;;;5130816;27;20180;-80
2021/04/23 05:26:01;;;;;;;10.43;2.92;;;;;;;;;;5135100;27;20174;-80
2021/04/23 05:28:27;;;;;;;6.47;2.80;;;;;;;;;;5132691;27;20272;-78
2021/04/23 05:30:53;;;;;;;8.52;2.85;;;;;;;;;;5128360;27;20270;-79
2021/04/23 05:33:19;;;;;;;11.65;3.63;;;;;;;;;;5123465;27;20217;-80
2021/04/23 05:35:45;;;;;;;6.28;2.80;;;;;;;;;;5115905;28;20718;-80
2021/04/23 05:38:12;;;;;;;9.98;3.42;;;;;;;;;;5129193;27;20273;-78
2021/04/23 05:40:41;;;;;;;14.07;3.30;;;;;;;;;;5116058;28;20173;-80
2021/04/23 05:43:07;;;;;;;11.02;3.47;;;;;;;;;;5122553;27;20176;-80
2021/04/23 05:45:33;;;;;;;13.82;3.30;;;;;;;;;;5120935;27;20228;-79
2021/04/23 05:48:00;;;;;;;6.53;3.50;;;;;;;;;;5130761;27;20218;-79
2021/04/23 05:50:26;;;;;;;12.05;3.45;;;;;;;;;;5115793;27;20283;-79
2021/04/23 05:52:55;;;;;;;10.60;3.55;;;;;;;;;;5105420;27;20258;-80
2021/04/23 05:55:25;;;;;;;7.82;3.10;;;;;;;;;;5115221;28;20224;-80
2021/04/23 05:57:51;;;;;;;16.23;4.00;;;;;;;;;;5120980;27;20192;-80
2021/04/23 06:00:19;;;;;;;8.98;3.33;;;;;;;;;;5127058;27;20201;-80
2021/04/23 06:02:45;;;;;;;18.25;3.60;;;;;;;;;;5114144;27;20643;-80
2021/04/23 06:05:12;;;;;;;10.13;3.53;;;;;;;;;;5116370;27;20206;-79
2021/04/23 06:07:38;;;;;;;8.38;3.60;;;;;;;;;;5114222;27;20209;-79
2021/04/23 06:10:05;;;;;;;15.40;3.17;;;;;;;;;;5116791;27;20574;-79
2021/04/23 06:12:35;;;;;;;13.55;3.30;;;;;;;;;;5123609;27;20181;-81
2021/04/23 06:15:01;;;;;;;10.27;3.05;;;;;;;;;;5114645;28;20187;-81
2021/04/23 06:17:27;;;;;;;10.27;3.10;;;;;;;;;;5124062;27;20190;-79
2021/04/23 06:19:53;;;;;;;10.90;3.78;;;;;;;;;;5117841;27;20206;-80
2021/04/23 06:22:19;;;;;;;10.97;3.23;;;;;;;;;;5115002;28;20175;-79
2021/04/23 06:24:45;;;;;;;9.43;3.40;;;;;;;;;;5114948;27;20412;-79
2021/04/23 06:27:11;;;;;;;14.57;3.35;;;;;;;;;;5118877;27;20450;-78
2021/04/23 06:29:37;;;;;;;10.85;3.90;;;;;;;;;;5113836;28;20185;-79
2021/04/23 06:32:03;;;;;;;12.40;3.78;;;;;;;;;;5114473;28;20175;-80
2021/04/23 06:34:29;;;;;;;18.38;3.70;;;;;;;;;;5116503;27;20177;-79
2021/04/23 06:36:55;;;;;;;12.90;4.17;;;;;;;;;;5131997;27;20603;-80
2021/04/23 06:39:21;;;;;;;13.70;3.20;;;;;;;;;;5114939;27;21047;-79
2021/04/23 06:41:47;;;;;;;17.63;4.53;;;;;;;;;;5114249;28;20206;-79
2021/04/23 06:44:15;;;;;;;13.00;3.35;;;;;;;;;;5114675;28;21043;-81
2021/04/23 06:46:41;;;;;;;11.90;3.97;;;;;;;;;;5123417;27;20189;-78
2021/04/23 06:49:07;;;;;;;13.43;3.60;;;;;;;;;;5118873;27;20174;-77
2021/04/23 06:51:33;;;;;;;16.73;3.65;;;;;;;;;;5114474;28;20694;-79
2021/04/23 06:53:59;;;;;;;10.48;4.25;;;;;;;;;;5114869;27;20182;-75
2021/04/23 06:56:25;;;;;;;13.13;3.47;;;;;;;;;;5123849;27;20192;-74
2021/04/23 06:58:51;;;;;;;9.40;3.90;;;;;;;;;;5134259;27;20189;-74
2021/04/23 07:01:17;;;;;;;15.30;3.53;;;;;;;;;;5134637;27;20415;-74
2021/04/23 07:03:44;;;;;;;11.98;3.05;;;;;;;;;;5131898;27;20519;-74
2021/04/23 07:06:10;;;;;;;13.40;3.90;;;;;;;;;;5123343;27;20193;-74
2021/04/23 07:08:39;;;;;;;10.63;3.40;;;;;;;;;;5134218;27;20705;-74
2021/04/23 07:11:06;;;;;;;15.48;3.45;;;;;;;;;;5134413;27;20178;-74
2021/04/23 07:13:32;;;;;;;10.20;3.30;;;;;;;;;;5134233;27;20184;-75
2021/04/23 07:15:58;;;;;;;14.88;4.20;;;;;;;;;;5128703;27;20225;-72
2021/04/23 07:18:24;;;;;;;15.50;3.43;;;;;;;;;;5130613;27;20562;-75
2021/04/23 07:20:50;;;;;;;12.68;3.88;;;;;;;;;;5134309;27;20419;-73
2021/04/23 07:23:16;;;;;;;10.38;4.30;;;;;;;;;;5134158;27;20178;-74
2021/04/23 07:25:42;;;;;;;8.85;3.60;;;;;;;;;;5134193;27;20178;-75
2021/04/23 07:28:08;;;;;;;8.55;2.95;;;;;;;;;;5123524;27;20195;-75
2021/04/23 07:30:35;;;;;;;9.77;2.90;;;;;;;;;;5123665;27;20184;-74
2021/04/23 07:33:03;;;;;;;9.90;2.95;;;;;;;;;;5134014;27;20227;-74
2021/04/23 07:35:29;;;;;;;8.35;3.20;;;;;;;;;;5133860;27;20227;-75
2021/04/23 07:37:56;;;;;;;11.53;2.83;;;;;;;;;;5133830;27;20202;-74
2021/04/23 07:40:22;;;;;;;8.85;2.90;;;;;;;;;;5134045;27;20478;-73
2021/04/23 07:42:51;;;;;;;10.87;3.10;;;;;;;;;;5133889;28;20578;-75
2021/04/23 07:45:18;;;;;;;13.52;3.40;;;;;;;;;;5132946;28;20416;-73
2021/04/23 07:47:45;;;;;;;9.68;3.20;;;;;;;;;;5133696;28;20190;-74
2021/04/23 07:50:12;;;;;;;12.18;2.95;;;;;;;;;;5134032;28;20249;-73
2021/04/23 07:52:38;;;;;;;14.95;3.70;;;;;;;;;;5119840;28;20230;-74
2021/04/23 07:55:05;;;;;;;12.38;3.35;;;;;;;;;;5133573;28;20185;-74
2021/04/23 07:57:33;;;;;;;11.43;3.90;;;;;;;;;;5133659;28;20550;-74
2021/04/23 07:59:59;;;;;;;10.40;3.22;;;;;;;;;;5133787;28;20526;-74
2021/04/23 08:02:25;;;;;;;11.40;3.13;;;;;;;;;;5133789;28;20174;-74
2021/04/23 08:04:51;;;;;;;14.40;2.90;;;;;;;;;;5133916;28;20378;-75
2021/04/23 08:07:18;;;;;;;7.13;2.83;;;;;;;;;;5128286;28;20440;-75
2021/04/23 08:09:44;;;;;;;7.90;3.45;;;;;;;;;;5125732;27;20216;-74
2021/04/23 08:12:10;;;;;;;7.85;3.13;;;;;;;;;;5137902;27;20208;-74
2021/04/23 08:14:36;;;;;;;6.50;3.22;;;;;;;;;;5126238;27;20619;-74
2021/04/23 08:17:02;;;;;;;9.20;3.45;;;;;;;;;;5125737;27;20221;-73
2021/04/23 08:19:28;;;;;;;12.55;3.38;;;;;;;;;;5137512;27;20284;-74
2021/04/23 08:21:54;;;;;;;10.90;3.27;;;;;;;;;;5133096;27;20636;-73
2021/04/23 08:24:20;;;;;;;10.23;3.45;;;;;;;;;;5116868;27;20400;-74
2021/04/23 08:26:46;;;;;;;7.30;2.80;;;;;;;;;;5135420;27;20595;-74
2021/04/23 08:29:13;;;;;;;9.68;3.50;;;;;;;;;;5117720;27;20182;-73
2021/04/23 08:31:39;;;;;;;10.70;3.05;;;;;;;;;;5135305;27;20600;-72
2021/04/23 08:34:05;;;;;;;10.18;3.58;;;;;;;;;;5137110;27;20569;-75
2021/04/23 08:36:31;;;;;;;9.18;2.65;;;;;;;;;;5137136;27;20200;-72
2021/04/23 08:38:58;;;;;;;8.10;3.47;;;;;;;;;;5137182;27;20199;-74
2021/04/23 08:41:24;;;;;;;7.47;3.00;;;;;;;;;;5137161;27;20201;-73
2021/04/23 08:43:50;;;;;;;7.65;2.95;;;;;;;;;;5137174;27;20255;-74
2021/04/23 08:46:16;;;;;;;9.63;3.53;;;;;;;;;;5137106;27;20737;-73
2021/04/23 08:48:42;;;;;;;10.00;4.83;;;;;;;;;;5136980;27;20770;-74
2021/04/23 08:51:09;;;;;;;8.98;3.22;;;;;;;;;;5118495;27;20415;-74
2021/04/23 08:53:35;;;;;;;12.93;3.50;;;;;;;;;;5128900;27;20573;-73
2021/04/23 08:56:02;;;;;;;8.77;3.15;;;;;;;;;;5136875;27;20204;-73
2021/04/23 08:58:28;;;;;;;6.18;2.90;;;;;;;;;;5123771;27;20207;-74
2021/04/23 09:00:54;;;;;;;7.85;2.92;;;;;;;;;;5122201;27;20166;-73
2021/04/23 09:03:22;;;;;;;8.90;3.65;;;;;;;;;;5136767;27;20219;-74
2021/04/23 09:06:07;;;;;;;10.05;3.20;;;;;;;;;;5136661;27;20613;-74
2021/04/23 09:08:34;;;;;;;9.73;4.00;;;;;;;;;;5136197;27;20246;-72
2021/04/23 09:11:13;;;;;;;8.88;3.53;;;;;;;;;;5136719;27;20181;-74
2021/04/23 09:13:48;;;;;;;7.15;3.47;;;;;;;;;;5131818;27;20496;-73
2021/04/23 09:16:14;;;;;;;9.93;3.20;;;;;;;;;;5116004;28;20227;-75
2021/04/23 09:18:40;;;;;;;10.45;3.88;;;;;;;;;;5121175;27;20201;-74
2021/04/23 09:21:08;;;;;;;11.03;6.17;;;;;;;;;;5135462;27;20170;-74
2021/04/23 09:23:45;;;;;;;31.13;16.40;;;;;;;;;;5136224;27;20439;-74
2021/04/23 09:26:29;;;;;;;8.57;3.42;;;;;;;;;;5136694;27;20185;-75
2021/04/23 09:28:55;;;;;;;8.45;3.25;;;;;;;;;;5119370;27;20170;-73
2021/04/23 09:31:21;;;;;;;9.30;3.95;;;;;;;;;;5132517;27;20187;-73
2021/04/23 09:33:51;;;;;;;10.10;3.90;;;;;;;;;;5135873;27;20199;-74
2021/04/23 09:36:26;;;;;;;13.23;3.45;;;;;;;;;;5136149;27;20843;-73
2021/04/23 09:39:28;;;;;;;6.80;3.13;;;;;;;;;;5135736;27;20658;-73
2021/04/23 09:42:10;;;;;;;6.70;2.92;;;;;;;;;;5092794;28;20278;-75
2021/04/23 09:44:37;;;;;;;6.65;3.05;;;;;;;;;;5132336;27;20205;-73
2021/04/23 09:47:05;;;;;;;6.82;3.78;;;;;;;;;;5135962;27;20554;-76
2021/04/23 09:49:31;;;;;;;8.10;3.30;;;;;;;;;;5136030;27;20166;-74
2021/04/23 09:51:57;;;;;;;5.60;3.13;;;;;;;;;;5123020;27;20416;-74
2021/04/23 09:54:24;;;;;;;6.20;3.37;;;;;;;;;;5134700;27;20404;-74
2021/04/23 09:56:52;;;;;;;8.43;3.23;;;;;;;;;;5136241;27;20431;-76
2021/04/23 09:59:20;;;;;;;6.10;3.37;;;;;;;;;;5135641;27;20454;-72
2021/04/23 10:01:50;;;;;;;5.80;3.30;;;;;;;;;;5135735;27;20458;-75
2021/04/23 10:04:24;;;;;;;4.80;3.23;;;;;;;;;;5135553;27;20410;-75
2021/04/23 10:07:16;;;;;;;7.50;3.47;;;;;;;;;;5135504;27;20477;-76
2021/04/23 10:09:46;;;;;;;6.73;3.17;;;;;;;;;;5111056;27;20415;-73
2021/04/23 10:12:12;;;;;;;8.90;2.97;;;;;;;;;;5135539;27;20771;-73
2021/04/23 10:14:38;;;;;;;8.73;3.87;;;;;;;;;;5122691;27;20405;-74
2021/04/23 10:17:05;;;;;;;9.40;3.00;;;;;;;;;;5124997;27;20484;-73
2021/04/23 10:19:32;;;;;;;13.47;3.60;;;;;;;;;;5135454;27;20542;-75
2021/04/23 10:21:58;;;;;;;8.20;3.47;;;;;;;;;;5135602;27;20818;-76
2021/04/23 10:24:25;;;;;;;7.93;3.10;;;;;;;;;;5135219;27;20468;-76
2021/04/23 10:26:52;;;;;;;6.97;3.23;;;;;;;;;;5135369;27;20432;-76
2021/04/23 10:29:18;;;;;;;9.40;2.97;;;;;;;;;;5135302;27;20408;-75
2021/04/23 10:31:44;;;;;;;10.07;3.73;;;;;;;;;;5134886;27;20429;-76
2021/04/23 10:34:10;;;;;;;8.47;3.43;;;;;;;;;;5134869;27;20408;-75
2021/04/23 10:36:37;;;;;;;7.13;3.30;;;;;;;;;;5134982;27;20438;-74
2021/04/23 10:39:06;;;;;;;9.20;3.37;;;;;;;;;;5135112;27;20451;-76
2021/04/23 10:41:36;;;;;;;7.80;3.73;;;;;;;;;;5135137;27;20456;-75
2021/04/23 10:44:02;;;;;;;9.77;4.00;;;;;;;;;;5134934;27;20490;-75
2021/04/23 10:46:29;;;;;;;7.33;3.37;;;;;;;;;;5134737;27;20418;-76
2021/04/23 10:49:08;;;;;;;6.43;3.40;;;;;;;;;;5134780;27;20475;-76
2021/04/23 10:51:34;;;;;;;13.30;3.77;;;;;;;;;;5125634;27;20463;-75
2021/04/23 10:54:16;;;;;;;6.33;3.30;;;;;;;;;;5130815;27;20807;-76
2021/04/23 10:56:50;;;;;;;5.90;3.30;;;;;;;;;;5134746;27;20435;-75
2021/04/23 10:59:22;;;;;;;6.97;3.33;;;;;;;;;;5134269;27;20463;-75
2021/04/23 11:01:52;;;;;;;11.97;3.90;;;;;;;;;;5134882;27;20441;-76
2021/04/23 11:04:18;;;;;;;6.50;3.27;;;;;;;;;;5134517;27;20407;-75
2021/04/23 11:06:44;;;;;;;7.07;3.50;;;;;;;;;;5134606;27;20443;-75
2021/04/23 11:09:13;;;;;;;7.13;3.20;;;;;;;;;;5134278;27;20529;-76
2021/04/23 11:11:40;;;;;;;7.37;3.13;;;;;;;;;;5134532;27;20836;-75
2021/04/23 11:14:27;;;;;;;6.97;3.43;;;;;;;;;;5125974;27;20468;-75
2021/04/23 11:16:54;;;;;;;11.33;3.33;;;;;;;;;;5122962;27;20435;-75
2021/04/23 11:19:20;;;;;;;6.40;3.80;;;;;;;;;;5134279;27;20447;-75
2021/04/23 11:22:03;;;;;;;8.83;3.70;;;;;;;;;;5134246;27;20896;-74
2021/04/23 11:24:29;;;;;;;8.10;3.50;;;;;;;;;;5133969;27;20726;-77
2021/04/23 11:26:58;;;;;;;8.00;3.80;;;;;;;;;;5134209;27;20849;-75
2021/04/23 11:29:39;;;;;;;8.63;3.43;;;;;;;;;;5107947;27;20412;-75
2021/04/23 11:32:13;;;;;;;6.93;3.30;;;;;;;;;;5134243;27;20411;-74
2021/04/23 11:34:49;;;;;;;6.63;3.30;;;;;;;;;;5133690;27;20407;-74
2021/04/23 11:37:15;;;;;;;7.00;3.07;;;;;;;;;;5134067;27;20923;-75
2021/04/23 11:39:46;;;;;;;8.73;3.40;;;;;;;;;;5133726;27;20454;-76
2021/04/23 11:42:15;;;;;;;6.70;3.40;;;;;;;;;;5134171;27;20415;-75
2021/04/23 11:44:54;;;;;;;7.17;2.90;;;;;;;;;;5132770;27;20407;-74
2021/04/23 11:47:26;;;;;;;7.40;3.07;;;;;;;;;;5134102;28;20428;-76
2021/04/23 11:50:03;;;;;;;6.23;3.37;;;;;;;;;;5134036;28;20453;-75
2021/04/23 11:52:32;;;;;;;4.60;2.70;;;;;;;;;;5120602;28;20414;-76
2021/04/23 11:54:58;;;;;;;8.53;3.60;;;;;;;;;;5133484;28;20419;-74
2021/04/23 11:57:29;;;;;;;10.00;2.83;;;;;;;;;;5133516;28;20431;-74
2021/04/23 12:00:02;;;;;;;10.90;3.63;;;;;;;;;;5133772;28;20462;-74
2021/04/23 12:02:41;;;;;;;8.90;3.80;;;;;;;;;;5134022;27;20790;-75
2021/04/23 12:05:08;;;;;;;4.70;2.80;;;;;;;;;;5133736;28;20466;-75
2021/04/23 12:07:45;;;;;;;5.67;2.87;;;;;;;;;;5133779;28;20436;-74
2021/04/23 12:10:12;;;;;;;9.10;3.27;;;;;;;;;;5133707;28;20745;-76
2021/04/23 12:12:38;;;;;;;4.40;2.30;;;;;;;;;;5134099;28;20447;-75
2021/04/23 12:15:05;;;;;;;5.43;2.70;;;;;;;;;;5119795;28;20426;-76
2021/04/23 12:17:41;;;;;;;6.40;3.00;;;;;;;;;;5124203;28;20518;-76
2021/04/23 12:20:13;;;;;;;9.83;3.60;;;;;;;;;;5133515;28;20451;-74
2021/04/23 12:22:40;;;;;;;6.97;3.10;;;;;;;;;;5133931;28;20417;-74
2021/04/23 12:25:18;;;;;;;8.07;3.23;;;;;;;;;;5133274;28;20494;-74
2021/04/23 12:27:44;;;;;;;7.87;3.60;;;;;;;;;;5126474;28;20430;-74
2021/04/23 12:30:10;;;;;;;8.03;3.10;;;;;;;;;;5120088;28;20407;-75
2021/04/23 12:32:36;;;;;;;7.93;2.83;;;;;;;;;;5133674;28;20416;-75
2021/04/23 12:35:02;;;;;;;7.03;3.07;;;;;;;;;;5133230;28;20488;-75
2021/04/23 12:37:28;;;;;;;6.90;2.80;;;;;;;;;;5133080;28;20438;-75
2021/04/23 12:39:54;;;;;;;5.70;3.07;;;;;;;;;;5133481;28;20459;-76
2021/04/23 12:42:26;;;;;;;8.23;3.40;;;;;;;;;;5133612;28;20434;-74
2021/04/23 12:44:58;;;;;;;6.73;2.63;;;;;;;;;;5133175;28;20400;-74
2021/04/23 12:47:24;;;;;;;7.17;2.97;;;;;;;;;;5132800;28;20424;-74
2021/04/23 12:49:50;;;;;;;8.33;3.10;;;;;;;;;;5131914;28;20764;-75
2021/04/23 12:52:17;;;;;;;9.60;3.70;;;;;;;;;;5119592;28;20461;-74
2021/04/23 12:54:43;;;;;;;4.63;2.73;;;;;;;;;;5133860;27;20463;-74
2021/04/23 12:57:09;;;;;;;6.67;3.03;;;;;;;;;;5135012;27;20435;-75
2021/04/23 12:59:48;;;;;;;6.90;3.00;;;;;;;;;;5124894;27;20459;-74
2021/04/23 13:02:33;;;;;;;7.60;3.47;;;;;;;;;;5136945;27;20911;-74
2021/04/23 13:05:18;;;;;;;6.73;3.43;;;;;;;;;;5136703;27;20400;-75
2021/04/23 13:07:52;;;;;;;5.90;3.00;;;;;;;;;;5136711;27;20819;-74
2021/04/23 13:10:20;;;;;;;8.10;2.83;;;;;;;;;;5136580;27;20415;-73
2021/04/23 13:12:46;;;;;;;7.67;3.20;;;;;;;;;;5136726;27;20405;-74
2021/04/23 13:15:12;;;;;;;7.67;3.00;;;;;;;;;;5122758;27;20403;-75
2021/04/23 13:17:40;;;;;;;9.07;4.80;;;;;;;;;;5127644;27;20503;-74
2021/04/23 13:20:26;;;;;;;8.93;3.00;;;;;;;;;;5136493;27;20457;-73
2021/04/23 13:22:53;;;;;;;6.00;2.83;;;;;;;;;;5136240;27;20411;-75
2021/04/23 13:25:21;;;;;;;6.43;2.70;;;;;;;;;;5136413;27;20415;-73
2021/04/23 13:27:52;;;;;;;5.10;2.80;;;;;;;;;;5128775;27;20425;-73
2021/04/23 13:30:37;;;;;;;6.00;2.90;;;;;;;;;;5124405;27;20439;-76
2021/04/23 13:33:05;;;;;;;7.90;3.40;;;;;;;;;;5136243;27;20419;-74
2021/04/23 13:35:36;;;;;;;9.00;5.17;;;;;;;;;;5136212;27;20407;-75
2021/04/23 13:38:21;;;;;;;11.57;3.57;;;;;;;;;;5117218;27;20425;-74
2021/04/23 13:40:48;;;;;;;8.67;3.10;;;;;;;;;;5130213;27;20399;-74
2021/04/23 13:43:14;;;;;;;11.30;4.30;;;;;;;;;;5127991;27;20445;-73
2021/04/23 13:45:53;;;;;;;6.67;3.40;;;;;;;;;;5114546;28;20814;-75
2021/04/23 13:48:19;;;;;;;5.67;2.80;;;;;;;;;;5115325;28;20440;-75
2021/04/23 13:50:46;;;;;;;5.37;2.40;;;;;;;;;;5128993;27;20407;-76
2021/04/23 13:53:12;;;;;;;5.30;2.40;;;;;;;;;;5115605;27;20419;-75
2021/04/23 13:55:38;;;;;;;8.30;2.50;;;;;;;;;;5118226;27;20416;-74
2021/04/23 13:58:06;;;;;;;8.83;2.63;;;;;;;;;;5124488;27;20533;-74
2021/04/23 14:00:49;;;;;;;7.13;2.50;;;;;;;;;;5128916;27;20477;-76
2021/04/23 14:03:15;;;;;;;5.77;2.73;;;;;;;;;;5115424;28;20911;-75
2021/04/23 14:05:41;;;;;;;5.23;2.47;;;;;;;;;;5115593;27;20423;-73
2021/04/23 14:08:07;;;;;;;7.87;2.80;;;;;;;;;;5123069;27;20435;-74
2021/04/23 14:10:32;;;;;;;10.87;4.33;;;;;;;;;;5118731;27;20782;-75
2021/04/23 14:12:58;;;;;;;6.13;2.97;;;;;;;;;;5123997;27;20411;-74
2021/04/23 14:15:24;;;;;;;6.13;2.50;;;;;;;;;;5111533;27;20929;-75
2021/04/23 14:17:50;;;;;;;5.67;3.13;;;;;;;;;;5123878;27;20439;-75
2021/04/23 14:20:16;;;;;;;6.90;4.03;;;;;;;;;;5122457;27;20467;-75
2021/04/23 14:22:42;;;;;;;8.57;2.90;;;;;;;;;;5117663;27;20511;-74
2021/04/23 14:25:09;;;;;;;6.73;2.90;;;;;;;;;;5116087;27;20431;-76
2021/04/23 14:27:35;;;;;;;4.72;2.40;;;;;;;;;;5125827;27;20963;-76
2021/04/23 14:30:00;;;;;;;8.77;2.80;;;;;;;;;;5110436;27;20202;-75
2021/04/23 14:32:26;;;;;;;5.87;2.10;;;;;;;;;;5114357;27;20971;-75
2021/04/23 14:34:52;;;;;;;9.37;2.53;;;;;;;;;;5122861;27;21289;-74
2021/04/23 14:37:19;;;;;;;9.10;2.60;;;;;;;;;;5110833;28;20835;-77
2021/04/23 14:39:46;;;;;;;4.75;2.63;;;;;;;;;;5110476;28;20452;-75
2021/04/23 14:42:12;;;;;;;5.10;2.45;;;;;;;;;;5128083;27;20182;-74